createdAt,value
2023-03-07T00:01:03.751Z,96865.84
2023-03-07T00:06:09.967Z,96857.78
2023-03-07T00:11:12.867Z,96854.38
2023-03-07T00:16:18.100Z,96863.50
2023-03-07T00:21:22.704Z,96860.59
2023-03-07T00:26:26.898Z,96869.16
2023-03-07T00:31:29.312Z,96860.25
2023-03-07T00:36:31.893Z,96848.75
2023-03-07T00:41:35.152Z,96847.34
2023-03-07T00:46:37.839Z,96840.06
2023-03-07T00:51:40.427Z,96818.06
2023-03-07T00:56:43.877Z,96816.50
2023-03-07T01:01:46.787Z,96822.78
2023-03-07T01:06:50.546Z,96811.31
2023-03-07T01:11:53.583Z,96813.66
2023-03-07T01:16:56.029Z,96802.81
2023-03-07T01:21:58.650Z,96798.16
2023-03-07T01:27:01.341Z,96807.47
2023-03-07T01:32:04.012Z,96807.59
2023-03-07T01:37:07.055Z,96805.41
2023-03-07T01:42:10.696Z,96800.94
2023-03-07T01:47:13.201Z,96791.44
2023-03-07T01:52:38.373Z,96792.94
2023-03-07T01:57:46.699Z,96789.38
2023-03-07T02:03:00.185Z,96785.63
2023-03-07T02:08:04.503Z,96773.72
2023-03-07T02:13:09.742Z,96773.97
2023-03-07T02:18:18.151Z,96769.38
2023-03-07T02:23:34.922Z,96772.69
2023-03-07T02:28:40.007Z,96766.22
2023-03-07T02:33:43.407Z,96768.09
2023-03-07T02:38:49.693Z,96760.03
2023-03-07T02:43:53.104Z,96743.38
2023-03-07T02:48:55.623Z,96739.56
2023-03-07T02:53:58.287Z,96735.66
2023-03-07T02:59:00.952Z,96736.81
2023-03-07T03:04:03.657Z,96727.44
2023-03-07T03:09:06.459Z,96723.69
2023-03-07T03:14:09.076Z,96723.66
2023-03-07T03:19:11.633Z,96731.50
2023-03-07T03:24:14.626Z,96725.44
2023-03-07T03:29:17.905Z,96729.16
2023-03-07T03:34:21.679Z,96730.44
2023-03-07T03:39:26.661Z,96733.13
2023-03-07T03:44:34.542Z,96726.47
2023-03-07T03:49:38.132Z,96722.97
2023-03-07T03:54:40.858Z,96716.91
2023-03-07T03:59:43.677Z,96712.34
2023-03-07T04:04:48.873Z,96705.47
2023-03-07T04:09:51.464Z,96701.66
2023-03-07T04:14:53.961Z,96703.59
2023-03-07T04:19:56.524Z,96700.91
2023-03-07T04:24:59.571Z,96710.03
2023-03-07T04:30:02.578Z,96702.78
2023-03-07T04:35:05.809Z,96696.97
2023-03-07T04:40:09.529Z,96700.72
2023-03-07T04:45:12.241Z,96688.34
2023-03-07T04:50:16.207Z,96695.13
2023-03-07T04:55:21.017Z,96683.41
2023-03-07T05:00:24.989Z,96685.56
2023-03-07T05:05:27.715Z,96685.34
2023-03-07T05:10:32.024Z,96682.34
2023-03-07T05:15:35.794Z,96674.97
2023-03-07T05:20:38.668Z,96674.97
2023-03-07T05:25:43.470Z,96665.72
2023-03-07T05:30:47.033Z,96664.19
2023-03-07T05:35:49.724Z,96664.91
2023-03-07T05:40:53.251Z,96671.66
2023-03-07T05:45:56.006Z,96662.09
2023-03-07T05:51:01.799Z,96667.34
2023-03-07T05:56:05.841Z,96660.91
2023-03-07T06:01:08.901Z,96659.53
2023-03-07T06:06:12.691Z,96649.69
2023-03-07T06:11:16.264Z,96650.06
2023-03-07T06:16:19.082Z,96641.66
2023-03-07T06:21:22.486Z,96643.94
2023-03-07T06:26:25.204Z,96640.47
2023-03-07T06:31:29.635Z,96636.50
2023-03-07T06:36:32.503Z,96648.88
2023-03-07T06:41:37.369Z,96648.41
2023-03-07T06:46:41.180Z,96642.91
2023-03-07T06:51:48.826Z,96647.28
2023-03-07T06:56:51.977Z,96661.69
2023-03-07T07:01:58.007Z,96646.63
2023-03-07T07:07:00.590Z,96644.34
2023-03-07T07:12:06.162Z,96647.66
2023-03-07T07:17:10.521Z,96647.31
2023-03-07T07:22:15.997Z,96642.59
2023-03-07T07:27:19.580Z,96645.13
2023-03-07T07:32:23.163Z,96630.25
2023-03-07T07:37:25.991Z,96632.75
2023-03-07T07:42:29.788Z,96643.94
2023-03-07T07:47:49.629Z,96640.34
2023-03-07T07:52:54.444Z,96636.91
2023-03-07T07:57:57.710Z,96641.69
2023-03-07T08:03:01.187Z,96643.16
2023-03-07T08:08:03.901Z,96628.56
2023-03-07T08:13:06.719Z,96628.47
2023-03-07T08:18:10.996Z,96623.78
2023-03-07T08:23:13.301Z,96622.75
2023-03-07T08:28:18.143Z,96629.16
2023-03-07T08:33:20.268Z,96623.63
2023-03-07T08:38:22.321Z,96610.38
2023-03-07T08:43:24.373Z,96606.09
2023-03-07T08:48:27.265Z,96605.91
2023-03-07T08:53:29.348Z,96600.00
2023-03-07T08:58:31.408Z,96607.44
2023-03-07T09:03:34.553Z,96601.38
2023-03-07T09:08:37.032Z,96598.44
2023-03-07T09:13:50.973Z,96605.34
2023-03-07T09:18:53.816Z,96600.97
2023-03-07T09:23:55.838Z,96585.81
2023-03-07T09:28:57.798Z,96591.22
2023-03-07T09:34:00.126Z,96591.44
2023-03-07T09:39:02.934Z,96598.06
2023-03-07T09:44:15.821Z,96592.78
2023-03-07T09:49:48.249Z,96592.47
2023-03-07T09:55:00.210Z,96588.66
2023-03-07T10:00:25.006Z,96583.78
2023-03-07T10:05:27.634Z,96580.00
2023-03-07T10:10:58.739Z,96587.09
2023-03-07T10:16:43.366Z,96577.16
2023-03-07T10:22:11.323Z,96572.59
2023-03-07T10:27:15.554Z,96574.97
2023-03-07T10:32:21.142Z,96566.47
2023-03-07T10:37:40.551Z,96566.00
2023-03-07T10:42:43.151Z,96554.91
2023-03-07T10:47:45.698Z,96552.00
2023-03-07T10:52:53.785Z,96551.22
2023-03-07T10:58:12.028Z,96537.03
2023-03-07T11:03:26.720Z,96547.19
2023-03-07T11:08:32.619Z,96546.59
2023-03-07T11:13:35.368Z,96543.47
2023-03-07T11:18:43.818Z,96538.06
2023-03-07T11:23:59.755Z,96526.88
2023-03-07T11:29:07.163Z,96514.59
2023-03-07T11:34:24.421Z,96515.47
2023-03-07T11:39:34.523Z,96523.38
2023-03-07T11:44:53.424Z,96520.34
2023-03-07T11:50:30.276Z,96524.28
2023-03-07T11:56:04.707Z,96524.81
2023-03-07T12:01:37.369Z,96523.09
2023-03-07T12:07:13.631Z,96519.25
2023-03-07T12:12:38.406Z,96511.03
2023-03-07T12:18:14.279Z,96513.47
2023-03-07T12:23:42.447Z,96500.88
2023-03-07T12:29:01.644Z,96478.78
2023-03-07T12:34:10.253Z,96467.13
2023-03-07T12:39:19.902Z,96463.13
2023-03-07T12:44:49.660Z,96445.78
2023-03-07T12:50:03.470Z,96423.06
2023-03-07T12:55:31.569Z,96423.44
2023-03-07T13:00:39.517Z,96411.28
2023-03-07T13:05:44.575Z,96413.97
2023-03-07T13:10:47.388Z,96409.72
2023-03-07T13:16:06.692Z,96406.34
2023-03-07T13:21:31.138Z,96392.94
2023-03-07T13:26:33.913Z,96389.75
2023-03-07T13:31:45.114Z,96396.50
2023-03-07T13:36:53.076Z,96389.38
2023-03-07T13:41:55.547Z,96391.44
2023-03-07T13:47:02.720Z,96386.81
2023-03-07T13:52:35.903Z,96385.53
2023-03-07T13:57:42.835Z,96398.44
2023-03-07T14:02:45.970Z,96404.06
2023-03-07T14:07:51.794Z,96393.91
2023-03-07T14:13:12.138Z,96403.06
2023-03-07T14:18:36.949Z,96410.75
2023-03-07T14:24:01.249Z,96408.50
2023-03-07T14:29:12.715Z,96416.50
2023-03-07T14:34:36.731Z,96408.84
2023-03-07T14:40:00.645Z,96411.50
2023-03-07T14:45:33.485Z,96412.63
2023-03-07T14:50:39.978Z,96410.44
2023-03-07T14:55:45.357Z,96402.06
2023-03-07T15:01:05.048Z,96397.84
2023-03-07T15:06:16.130Z,96386.84
2023-03-07T15:11:40.646Z,96376.06
2023-03-07T15:16:53.148Z,96378.00
2023-03-07T15:21:59.295Z,96377.69
2023-03-07T15:27:02.825Z,96375.50
2023-03-07T15:32:07.464Z,96379.19
2023-03-07T15:37:26.832Z,96380.41
2023-03-07T15:42:30.016Z,96402.56
2023-03-07T15:47:34.280Z,96388.63
2023-03-07T15:52:39.903Z,96391.59
2023-03-07T15:57:52.972Z,96386.31
2023-03-07T16:03:23.959Z,96383.81
2023-03-07T16:08:27.642Z,96387.28
2023-03-07T16:13:39.064Z,96397.34
2023-03-07T16:18:43.062Z,96410.88
2023-03-07T16:23:46.361Z,96405.09
2023-03-07T16:28:52.230Z,96403.34
2023-03-07T16:33:55.206Z,96412.91
2023-03-07T16:38:57.677Z,96412.63
2023-03-07T16:44:00.135Z,96422.09
2023-03-07T16:49:02.805Z,96423.03
2023-03-07T16:54:05.405Z,96432.84
2023-03-07T16:59:12.822Z,96427.50
2023-03-07T17:04:15.638Z,96435.16
2023-03-07T17:09:18.183Z,96448.63
2023-03-07T17:14:20.852Z,96432.41
2023-03-07T17:19:28.694Z,96443.63
2023-03-07T17:24:31.431Z,96448.41
2023-03-07T17:29:41.881Z,96454.78
2023-03-07T17:34:44.731Z,96457.09
2023-03-07T17:39:48.488Z,96462.69
2023-03-07T17:44:51.102Z,96467.31
2023-03-07T17:49:53.579Z,96467.22
2023-03-07T17:54:55.985Z,96482.34
2023-03-07T17:59:58.644Z,96490.13
2023-03-07T18:05:01.141Z,96492.91
2023-03-07T18:10:08.156Z,96502.94
2023-03-07T18:15:15.520Z,96512.88
2023-03-07T18:20:19.818Z,96510.06
2023-03-07T18:25:25.338Z,96514.06
2023-03-07T18:30:28.044Z,96510.06
2023-03-07T18:35:30.528Z,96506.63
2023-03-07T18:40:33.155Z,96503.06
2023-03-07T18:45:35.863Z,96507.88
2023-03-07T18:50:39.013Z,96499.91
2023-03-07T18:55:41.455Z,96512.75
2023-03-07T19:00:44.317Z,96523.97
2023-03-07T19:05:49.510Z,96518.38
2023-03-07T19:10:51.912Z,96530.22
2023-03-07T19:16:06.856Z,96533.13
2023-03-07T19:21:15.856Z,96526.25
2023-03-07T19:26:19.967Z,96520.69
2023-03-07T19:31:25.463Z,96527.63
2023-03-07T19:36:29.706Z,96532.03
2023-03-07T19:41:32.958Z,96543.97
2023-03-07T19:46:35.457Z,96540.09
2023-03-07T19:51:40.080Z,96543.47
2023-03-07T19:56:44.616Z,96552.75
2023-03-07T20:01:47.322Z,96552.81
2023-03-07T20:06:49.877Z,96554.44
2023-03-07T20:11:52.374Z,96564.22
2023-03-07T20:16:54.839Z,96565.31
2023-03-07T20:21:57.233Z,96554.44
2023-03-07T20:27:00.361Z,96551.63
2023-03-07T20:32:03.135Z,96553.91
2023-03-07T20:37:05.591Z,96545.47
2023-03-07T20:42:08.331Z,96557.28
2023-03-07T20:47:10.945Z,96563.16
2023-03-07T20:52:13.661Z,96580.88
2023-03-07T20:57:16.193Z,96596.03
2023-03-07T21:02:18.628Z,96597.97
2023-03-07T21:07:21.102Z,96603.72
2023-03-07T21:12:23.486Z,96604.97
2023-03-07T21:17:25.875Z,96588.41
2023-03-07T21:22:28.304Z,96572.97
2023-03-07T21:27:30.716Z,96585.41
2023-03-07T21:32:33.234Z,96602.03
2023-03-07T21:37:36.421Z,96608.50
2023-03-07T21:42:39.124Z,96614.59
2023-03-07T21:47:42.260Z,96633.47
2023-03-07T21:52:45.965Z,96636.31
2023-03-07T21:57:48.656Z,96632.09
2023-03-07T22:02:51.175Z,96640.88
2023-03-07T22:07:53.778Z,96646.75
2023-03-07T22:12:56.254Z,96651.06
2023-03-07T22:17:58.706Z,96650.47
2023-03-07T22:23:01.158Z,96657.63
2023-03-07T22:28:03.697Z,96660.59
2023-03-07T22:33:06.173Z,96661.25
2023-03-07T22:38:09.026Z,96662.19
2023-03-07T22:43:11.663Z,96660.25
2023-03-07T22:48:16.005Z,96649.69
2023-03-07T22:53:18.577Z,96644.41
2023-03-07T22:58:20.992Z,96640.34
2023-03-07T23:03:23.773Z,96652.16
2023-03-07T23:08:26.345Z,96644.22
2023-03-07T23:13:28.803Z,96649.88
2023-03-07T23:18:31.915Z,96656.00
2023-03-07T23:23:35.293Z,96659.16
2023-03-07T23:28:38.076Z,96659.91
2023-03-07T23:33:40.564Z,96650.25
2023-03-07T23:38:47.314Z,96647.59
2023-03-07T23:43:54.055Z,96661.56
2023-03-07T23:48:57.021Z,96666.22
2023-03-07T23:53:59.445Z,96665.75
2023-03-07T23:59:01.904Z,96663.41
